Time;durP1;ratioP1;P1;durP2;ratioP2;P2;SDS_P1;SDS_P2;PMS_P1;PMS_P2;Temp;Humidity;BMP_temperature;BMP_pressure;BME280_temperature;BME280_humidity;BME280_pressure;Samples;Min_cycle;Max_cycle;Signal;HPM_P1;HPM_P2
2023/08/15 00:01:40;;;;;;;0.20;0.20;;;19.00;99.90;;;;;;5027616;28;20076;-68
2023/08/15 00:04:06;;;;;;;0.20;0.20;;;19.00;99.90;;;;;;5020694;28;20029;-68
2023/08/15 00:06:32;;;;;;;0.10;0.10;;;19.00;99.90;;;;;;5023786;28;20021;-68
2023/08/15 00:08:59;;;;;;;0.53;0.50;;;19.00;99.90;;;;;;5018940;28;20034;-68
2023/08/15 00:11:25;;;;;;;0.10;0.10;;;18.90;99.90;;;;;;5027902;28;20337;-68
2023/08/15 00:13:55;;;;;;;0.33;0.33;;;18.90;99.90;;;;;;5021128;28;20030;-67
2023/08/15 00:16:21;;;;;;;0.15;0.15;;;18.90;99.90;;;;;;5025422;28;20286;-67
2023/08/15 00:18:47;;;;;;;0.15;0.15;;;18.90;99.90;;;;;;5032767;28;20112;-68
2023/08/15 00:21:13;;;;;;;0.20;0.20;;;18.90;99.90;;;;;;5027964;28;20499;-68
2023/08/15 00:23:38;;;;;;;0.70;0.70;;;18.90;99.90;;;;;;5032866;28;20132;-68
2023/08/15 00:26:04;;;;;;;0.27;0.27;;;18.90;99.90;;;;;;5032859;28;20076;-68
2023/08/15 00:28:30;;;;;;;2.60;0.80;;;18.80;99.90;;;;;;5023037;28;20028;-68
2023/08/15 00:30:55;;;;;;;0.10;0.10;;;18.70;99.90;;;;;;5024177;28;20436;-68
2023/08/15 00:33:21;;;;;;;0.23;0.23;;;18.70;99.90;;;;;;5033945;28;20036;-67
2023/08/15 00:35:47;;;;;;;0.00;0.00;;;18.60;99.90;;;;;;5033008;28;20029;-73
2023/08/15 00:38:12;;;;;;;1.07;0.77;;;18.60;99.90;;;;;;5028291;28;20440;-69
2023/08/15 00:40:39;;;;;;;2.03;0.67;;;18.60;99.90;;;;;;5031222;28;20358;-68
2023/08/15 00:43:05;;;;;;;;;;;18.70;99.90;;;;;;5034170;28;20028;-69
2023/08/15 00:45:31;;;;;;;0.93;0.85;;;18.70;99.90;;;;;;5033336;28;19913;-68
2023/08/15 00:47:57;;;;;;;0.10;0.10;;;18.70;99.90;;;;;;5040124;28;20037;-68
2023/08/15 00:50:24;;;;;;;1.42;1.20;;;18.70;99.90;;;;;;5025622;28;20040;-68
2023/08/15 00:52:50;;;;;;;;;;;18.80;99.90;;;;;;5034422;28;20046;-68
2023/08/15 00:55:17;;;;;;;0.15;0.15;;;18.70;99.90;;;;;;5024942;28;19924;-68
2023/08/15 00:57:43;;;;;;;1.10;0.63;;;18.70;99.90;;;;;;5020655;28;20037;-68
2023/08/15 01:00:11;;;;;;;0.67;0.67;;;18.70;99.90;;;;;;5032804;28;20040;-68
2023/08/15 01:02:37;;;;;;;0.10;0.10;;;18.70;99.90;;;;;;5032619;28;20080;-68
2023/08/15 01:05:04;;;;;;;0.00;0.00;;;18.60;99.90;;;;;;5020513;28;20022;-67
2023/08/15 01:07:30;;;;;;;0.32;0.32;;;18.60;99.90;;;;;;5029228;28;20033;-68
2023/08/15 01:09:56;;;;;;;0.10;0.10;;;18.60;99.90;;;;;;5034167;28;20041;-68
2023/08/15 01:12:25;;;;;;;0.00;0.00;;;18.50;99.90;;;;;;5022935;28;20034;-68
2023/08/15 01:14:57;;;;;;;0.25;0.25;;;18.50;99.90;;;;;;5026869;28;20045;-68
2023/08/15 01:17:35;;;;;;;1.83;0.52;;;18.50;99.90;;;;;;5037362;28;20371;-68
2023/08/15 01:20:11;;;;;;;0.77;0.75;;;18.50;99.90;;;;;;5021522;28;20060;-68
2023/08/15 01:22:42;;;;;;;0.10;0.10;;;18.50;99.90;;;;;;5033299;28;20033;-68
2023/08/15 01:25:08;;;;;;;0.17;0.17;;;18.60;99.90;;;;;;5051664;28;20049;-68
2023/08/15 01:27:34;;;;;;;0.10;0.10;;;18.60;99.90;;;;;;5036460;28;20450;-71
2023/08/15 01:30:00;;;;;;;0.40;0.40;;;18.50;99.90;;;;;;5027448;28;20035;-68
2023/08/15 01:32:33;;;;;;;0.00;0.00;;;18.50;99.90;;;;;;5033106;28;20034;-68
2023/08/15 01:35:20;;;;;;;0.40;0.30;;;18.50;99.90;;;;;;5035848;28;20116;-69
2023/08/15 01:37:52;;;;;;;0.10;0.10;;;18.50;99.90;;;;;;5036450;28;20095;-68
2023/08/15 01:40:20;;;;;;;0.08;0.08;;;18.40;99.90;;;;;;5018178;28;20044;-68
2023/08/15 01:42:49;;;;;;;0.80;0.32;;;18.40;99.90;;;;;;5033349;28;20371;-68
2023/08/15 01:45:17;;;;;;;0.00;0.00;;;18.40;99.90;;;;;;5022554;28;20053;-68
2023/08/15 01:47:43;;;;;;;0.10;0.10;;;18.40;99.90;;;;;;5035881;28;20109;-68
2023/08/15 01:50:09;;;;;;;0.10;0.10;;;18.30;99.90;;;;;;5033306;28;20112;-68
2023/08/15 01:52:35;;;;;;;0.13;0.13;;;18.30;99.90;;;;;;5034845;28;20091;-68
2023/08/15 01:55:01;;;;;;;0.35;0.20;;;18.30;99.90;;;;;;5016579;28;20041;-68
2023/08/15 01:57:26;;;;;;;1.33;1.30;;;18.20;99.90;;;;;;5034746;28;20022;-68
2023/08/15 01:59:52;;;;;;;0.17;0.17;;;18.20;99.90;;;;;;5029451;28;20030;-68
2023/08/15 02:02:18;;;;;;;0.10;0.10;;;18.20;99.90;;;;;;5028161;28;20018;-68
2023/08/15 02:04:43;;;;;;;0.30;0.23;;;18.20;99.90;;;;;;5024762;28;20387;-68
2023/08/15 02:07:09;;;;;;;0.20;0.20;;;18.20;99.90;;;;;;5035701;28;20029;-68
2023/08/15 02:09:34;;;;;;;0.10;0.10;;;18.10;99.90;;;;;;5050258;28;20036;-81
2023/08/15 02:12:00;;;;;;;0.20;0.20;;;18.10;99.90;;;;;;5035189;28;20065;-69
2023/08/15 02:14:26;;;;;;;0.23;0.23;;;18.10;99.90;;;;;;5035757;28;20408;-68
2023/08/15 02:16:51;;;;;;;0.00;0.00;;;18.10;99.90;;;;;;5035292;28;20370;-68
2023/08/15 02:19:17;;;;;;;0.43;0.30;;;18.10;99.90;;;;;;5020183;28;20057;-68
2023/08/15 02:21:43;;;;;;;0.30;0.30;;;18.10;99.90;;;;;;5034528;28;20021;-68
2023/08/15 02:24:09;;;;;;;2.10;1.03;;;18.10;99.90;;;;;;5036080;28;20026;-68
2023/08/15 02:26:35;;;;;;;0.00;0.00;;;18.10;99.90;;;;;;5035321;28;20083;-68
2023/08/15 02:29:03;;;;;;;0.20;0.20;;;18.10;99.90;;;;;;5045039;28;20072;-68
2023/08/15 02:31:30;;;;;;;0.10;0.10;;;18.10;99.90;;;;;;5030325;28;20030;-68
2023/08/15 02:33:56;;;;;;;0.10;0.10;;;18.10;99.90;;;;;;5034676;28;20029;-68
2023/08/15 02:36:21;;;;;;;0.97;0.73;;;18.10;99.90;;;;;;5033621;28;20220;-68
2023/08/15 02:38:47;;;;;;;2.80;1.20;;;18.10;99.90;;;;;;5024489;28;20045;-68
2023/08/15 02:41:13;;;;;;;0.10;0.10;;;18.10;99.90;;;;;;5027501;28;20049;-68
2023/08/15 02:43:38;;;;;;;0.53;0.53;;;18.10;99.90;;;;;;5024306;28;20103;-68
2023/08/15 02:46:04;;;;;;;1.67;0.47;;;18.10;99.90;;;;;;5029200;28;20443;-68
2023/08/15 02:48:30;;;;;;;0.93;0.90;;;18.10;99.90;;;;;;5030234;28;20416;-68
2023/08/15 02:50:56;;;;;;;0.00;0.00;;;18.00;99.90;;;;;;5028349;28;20034;-68
2023/08/15 02:53:21;;;;;;;1.10;0.70;;;17.90;99.90;;;;;;5031239;28;20047;-68
2023/08/15 02:55:53;;;;;;;0.10;0.10;;;17.90;99.90;;;;;;5024482;28;20432;-68
2023/08/15 02:58:19;;;;;;;0.10;0.10;;;17.80;99.90;;;;;;5023214;28;20026;-68
2023/08/15 03:00:44;;;;;;;3.10;0.37;;;17.80;99.90;;;;;;5024932;28;20045;-67
2023/08/15 03:03:10;;;;;;;0.30;0.30;;;17.90;99.90;;;;;;5027344;28;20025;-67
2023/08/15 03:05:39;;;;;;;0.47;0.37;;;17.90;99.90;;;;;;5026210;28;20083;-81
2023/08/15 03:08:05;;;;;;;0.70;0.70;;;17.90;99.90;;;;;;5028476;28;20117;-68
2023/08/15 03:10:32;;;;;;;0.13;0.13;;;18.00;99.90;;;;;;5029552;28;20671;-68
2023/08/15 03:12:58;;;;;;;0.77;0.43;;;18.00;99.90;;;;;;5030056;28;20482;-69
2023/08/15 03:15:24;;;;;;;1.05;0.75;;;18.10;99.90;;;;;;5021262;28;20025;-67
2023/08/15 03:17:51;;;;;;;0.20;0.20;;;18.20;99.90;;;;;;5046394;28;20037;-68
2023/08/15 03:20:17;;;;;;;0.28;0.25;;;18.20;99.90;;;;;;5030703;28;20731;-67
2023/08/15 03:22:43;;;;;;;0.10;0.10;;;18.20;99.90;;;;;;5025990;28;20061;-68
2023/08/15 03:25:09;;;;;;;0.10;0.10;;;18.10;99.90;;;;;;5023417;28;20022;-68
2023/08/15 03:27:35;;;;;;;0.32;0.32;;;18.10;99.90;;;;;;5027572;28;20087;-67
2023/08/15 03:30:00;;;;;;;0.00;0.00;;;18.00;99.90;;;;;;5028369;28;20232;-67
2023/08/15 03:32:26;;;;;;;0.00;0.00;;;18.00;99.90;;;;;;5031619;28;20059;-67
2023/08/15 03:34:52;;;;;;;0.20;0.20;;;17.90;99.90;;;;;;5020499;28;20033;-68
2023/08/15 03:37:17;;;;;;;0.33;0.33;;;17.80;99.90;;;;;;5015049;28;20065;-68
2023/08/15 03:39:43;;;;;;;0.20;0.20;;;17.80;99.90;;;;;;5015178;28;20121;-68
2023/08/15 03:42:09;;;;;;;1.40;0.33;;;17.70;99.90;;;;;;5034652;28;20076;-68
2023/08/15 03:44:34;;;;;;;0.13;0.13;;;17.70;99.90;;;;;;5031231;28;20026;-68
2023/08/15 03:47:00;;;;;;;1.10;0.57;;;17.70;99.90;;;;;;5019921;28;20029;-68
2023/08/15 03:49:26;;;;;;;0.33;0.33;;;17.60;99.90;;;;;;5023452;28;20101;-68
2023/08/15 03:51:51;;;;;;;0.40;0.40;;;17.60;99.90;;;;;;5033696;28;20024;-67
2023/08/15 03:54:17;;;;;;;0.73;0.60;;;17.60;99.90;;;;;;5025411;28;20498;-67
2023/08/15 03:56:43;;;;;;;0.77;0.30;;;17.60;99.90;;;;;;5014974;28;20050;-67
2023/08/15 03:59:08;;;;;;;0.10;0.10;;;17.60;99.90;;;;;;5025920;28;20029;-67
2023/08/15 04:01:34;;;;;;;0.10;0.10;;;17.60;99.90;;;;;;5028543;28;20462;-68
2023/08/15 04:04:00;;;;;;;0.17;0.17;;;17.60;99.90;;;;;;5027481;28;20317;-68
2023/08/15 04:06:25;;;;;;;0.20;0.20;;;17.60;99.90;;;;;;5033249;28;20938;-67
2023/08/15 04:08:51;;;;;;;0.77;0.77;;;17.60;99.90;;;;;;5025932;28;20021;-68
2023/08/15 04:11:17;;;;;;;0.23;0.23;;;17.70;99.90;;;;;;5037066;28;20036;-68
2023/08/15 04:13:42;;;;;;;0.37;0.37;;;17.70;99.90;;;;;;5027379;28;20148;-67
2023/08/15 04:16:08;;;;;;;0.47;0.47;;;17.70;99.90;;;;;;5032894;28;20112;-67
2023/08/15 04:18:35;;;;;;;0.93;0.73;;;17.70;99.90;;;;;;5027464;28;20018;-68
2023/08/15 04:21:01;;;;;;;0.10;0.10;;;17.70;99.90;;;;;;5044835;28;20037;-67
2023/08/15 04:23:26;;;;;;;0.47;0.47;;;17.60;99.90;;;;;;5030731;28;20130;-67
2023/08/15 04:25:53;;;;;;;0.13;0.13;;;17.50;99.90;;;;;;5030702;28;20439;-68
2023/08/15 04:28:19;;;;;;;0.43;0.35;;;17.40;99.90;;;;;;5025267;28;20033;-67
2023/08/15 04:30:45;;;;;;;0.73;0.73;;;17.40;99.90;;;;;;5022003;28;20033;-68
2023/08/15 04:33:11;;;;;;;0.77;0.43;;;17.40;99.90;;;;;;5029870;28;20033;-68
2023/08/15 04:35:39;;;;;;;0.47;0.47;;;17.40;99.90;;;;;;5040834;28;20029;-67
2023/08/15 04:38:05;;;;;;;0.82;0.82;;;17.40;99.90;;;;;;5022835;28;20040;-68
2023/08/15 04:40:40;;;;;;;1.10;1.00;;;17.40;99.90;;;;;;5027303;28;20046;-68
2023/08/15 04:43:07;;;;;;;0.10;0.10;;;17.40;99.90;;;;;;5030522;28;20108;-68
2023/08/15 04:45:32;;;;;;;;;;;17.40;99.90;;;;;;5032002;28;20107;-68
2023/08/15 04:47:58;;;;;;;0.22;0.22;;;17.40;99.90;;;;;;5034707;28;20406;-67
2023/08/15 04:50:24;;;;;;;0.77;0.30;;;17.40;99.90;;;;;;5033296;28;20036;-68
2023/08/15 04:52:50;;;;;;;0.30;0.30;;;17.40;99.90;;;;;;5029067;28;20045;-68
2023/08/15 04:55:16;;;;;;;0.23;0.23;;;17.40;99.90;;;;;;5036507;28;20072;-67
2023/08/15 04:57:41;;;;;;;0.43;0.43;;;17.50;99.90;;;;;;5030257;28;20278;-67
2023/08/15 05:00:11;;;;;;;0.60;0.47;;;17.60;99.90;;;;;;5026345;28;20029;-67
2023/08/15 05:02:38;;;;;;;0.32;0.32;;;17.60;99.90;;;;;;5028655;28;20112;-68
2023/08/15 05:05:11;;;;;;;0.77;0.77;;;17.60;99.90;;;;;;5029042;28;20324;-67
2023/08/15 05:07:37;;;;;;;0.10;0.10;;;17.70;99.90;;;;;;5029204;28;20083;-67
2023/08/15 05:10:03;;;;;;;0.30;0.30;;;17.70;99.90;;;;;;5029727;28;20025;-68
2023/08/15 05:12:29;;;;;;;0.28;0.15;;;17.80;99.90;;;;;;5034195;28;20041;-68
2023/08/15 05:14:55;;;;;;;0.43;0.43;;;17.80;99.90;;;;;;5037662;28;20032;-68
2023/08/15 05:17:21;;;;;;;0.20;0.20;;;17.70;99.90;;;;;;5030449;28;20116;-67
2023/08/15 05:19:46;;;;;;;0.20;0.20;;;17.70;99.90;;;;;;5026239;28;20021;-67
2023/08/15 05:22:12;;;;;;;0.10;0.10;;;17.70;99.90;;;;;;5032883;28;20084;-68
2023/08/15 05:24:38;;;;;;;0.17;0.17;;;17.70;99.90;;;;;;5026840;28;20026;-67
2023/08/15 05:27:03;;;;;;;0.30;0.30;;;17.80;99.90;;;;;;5031377;28;20041;-68
2023/08/15 05:29:29;;;;;;;1.07;0.77;;;17.80;99.90;;;;;;5024600;28;20560;-68
2023/08/15 05:31:55;;;;;;;0.13;0.13;;;17.80;99.90;;;;;;5031214;28;20038;-67
2023/08/15 05:34:20;;;;;;;0.30;0.30;;;17.90;99.90;;;;;;5024652;28;20026;-68
2023/08/15 05:36:46;;;;;;;0.20;0.20;;;17.90;99.90;;;;;;5029021;28;20033;-68
2023/08/15 05:39:12;;;;;;;0.00;0.00;;;17.90;99.90;;;;;;5025746;28;20308;-69
2023/08/15 05:41:37;;;;;;;0.10;0.10;;;18.00;99.90;;;;;;5023405;28;20057;-68
2023/08/15 05:44:03;;;;;;;0.57;0.50;;;18.00;99.90;;;;;;5031147;28;20018;-68
2023/08/15 05:46:29;;;;;;;0.83;0.63;;;18.10;99.90;;;;;;5024886;28;20022;-68
2023/08/15 05:48:55;;;;;;;0.73;0.73;;;18.10;99.90;;;;;;5025193;28;20057;-68
2023/08/15 05:51:20;;;;;;;0.20;0.20;;;18.20;99.90;;;;;;5026143;28;20033;-68
2023/08/15 05:53:46;;;;;;;0.43;0.43;;;18.20;99.90;;;;;;5027936;28;20130;-68
2023/08/15 05:56:12;;;;;;;1.70;1.03;;;18.20;99.90;;;;;;5029859;28;20083;-68
2023/08/15 05:58:37;;;;;;;0.03;0.03;;;18.20;99.90;;;;;;5029171;28;20483;-78
2023/08/15 06:01:04;;;;;;;0.17;0.17;;;18.30;99.90;;;;;;5039984;28;20100;-68
2023/08/15 06:03:29;;;;;;;0.68;0.68;;;18.20;99.90;;;;;;5041591;28;20041;-68
2023/08/15 06:05:56;;;;;;;0.20;0.10;;;18.30;99.90;;;;;;5033000;28;20325;-68
2023/08/15 06:08:22;;;;;;;0.38;0.32;;;18.30;99.90;;;;;;5023680;28;20480;-68
2023/08/15 06:10:47;;;;;;;1.75;0.90;;;18.40;99.90;;;;;;5022334;28;20116;-68
2023/08/15 06:13:13;;;;;;;0.30;0.30;;;18.50;99.90;;;;;;5028817;28;20384;-68
2023/08/15 06:15:39;;;;;;;1.67;0.87;;;18.60;99.90;;;;;;5030358;28;20022;-68
2023/08/15 06:18:05;;;;;;;2.43;1.20;;;18.70;99.90;;;;;;5029862;28;20037;-68
2023/08/15 06:20:31;;;;;;;1.02;0.60;;;18.80;99.90;;;;;;5041491;28;20370;-68
2023/08/15 06:22:56;;;;;;;1.90;1.42;;;18.80;99.90;;;;;;5024475;28;20112;-68
2023/08/15 06:25:22;;;;;;;0.47;0.47;;;18.90;99.90;;;;;;5020684;28;20029;-68
2023/08/15 06:27:48;;;;;;;0.67;0.67;;;19.00;99.90;;;;;;5024731;28;20451;-68
2023/08/15 06:30:14;;;;;;;0.93;0.93;;;19.00;99.90;;;;;;5041476;28;20112;-68
2023/08/15 06:32:39;;;;;;;6.30;2.13;;;19.00;99.90;;;;;;5029670;28;20083;-68
2023/08/15 06:35:06;;;;;;;0.73;0.67;;;19.10;99.90;;;;;;5046490;28;20048;-69
2023/08/15 06:37:32;;;;;;;0.30;0.30;;;19.10;99.90;;;;;;5031177;28;20064;-68
2023/08/15 06:39:57;;;;;;;0.17;0.17;;;19.10;99.90;;;;;;5020811;28;20038;-68
2023/08/15 06:42:23;;;;;;;0.50;0.50;;;19.10;99.90;;;;;;5023396;28;20029;-69
2023/08/15 06:44:49;;;;;;;0.30;0.30;;;19.10;99.90;;;;;;5031033;28;20033;-68
2023/08/15 06:47:14;;;;;;;0.20;0.20;;;19.10;99.90;;;;;;5025322;28;20033;-69
2023/08/15 06:49:40;;;;;;;0.40;0.40;;;19.10;99.90;;;;;;5030041;28;20056;-68
2023/08/15 06:52:07;;;;;;;0.10;0.10;;;19.20;99.90;;;;;;5032962;28;20024;-68
2023/08/15 06:54:32;;;;;;;;;;;19.20;99.90;;;;;;5036053;28;20024;-68
2023/08/15 06:56:58;;;;;;;4.28;1.60;;;19.30;99.90;;;;;;5031287;28;19913;-68
2023/08/15 06:59:24;;;;;;;0.00;0.00;;;19.40;99.90;;;;;;5049015;28;20021;-82
2023/08/15 07:01:53;;;;;;;0.13;0.13;;;19.50;99.90;;;;;;5029618;28;20033;-68
2023/08/15 07:04:19;;;;;;;1.02;0.52;;;19.60;99.90;;;;;;5031586;28;20026;-68
2023/08/15 07:06:45;;;;;;;0.00;0.00;;;19.60;99.90;;;;;;5029477;28;20438;-68
2023/08/15 07:09:11;;;;;;;5.38;1.65;;;19.60;99.90;;;;;;5035921;28;20056;-68
2023/08/15 07:11:37;;;;;;;1.10;0.65;;;19.70;99.90;;;;;;5031720;28;20359;-68
2023/08/15 07:14:03;;;;;;;1.35;1.00;;;19.70;99.90;;;;;;5040925;28;20112;-68
2023/08/15 07:16:29;;;;;;;0.20;0.20;;;19.70;99.90;;;;;;5036224;28;20624;-68
2023/08/15 07:18:54;;;;;;;0.10;0.10;;;19.60;99.90;;;;;;5019498;28;20041;-69
2023/08/15 07:21:22;;;;;;;0.63;0.63;;;19.70;99.90;;;;;;5033073;28;20032;-68
2023/08/15 07:23:47;;;;;;;0.98;0.75;;;19.70;99.90;;;;;;5034528;28;20113;-68
2023/08/15 07:26:13;;;;;;;0.20;0.20;;;19.70;99.90;;;;;;5026662;28;20100;-68
2023/08/15 07:28:39;;;;;;;0.17;0.17;;;19.80;99.90;;;;;;5049814;28;20029;-68
2023/08/15 07:31:05;;;;;;;0.67;0.67;;;19.80;99.90;;;;;;5028687;28;20055;-68
2023/08/15 07:33:31;;;;;;;0.17;0.17;;;20.00;99.90;;;;;;5029448;28;20048;-68
2023/08/15 07:35:57;;;;;;;1.90;1.67;;;20.20;99.90;;;;;;5022543;28;20037;-68
2023/08/15 07:38:22;;;;;;;0.87;0.70;;;20.40;99.90;;;;;;5038791;28;20026;-68
2023/08/15 07:40:48;;;;;;;0.60;0.60;;;20.60;99.90;;;;;;5026041;28;20046;-72
2023/08/15 07:43:14;;;;;;;0.80;0.77;;;20.90;99.90;;;;;;5019636;28;20034;-68
2023/08/15 07:45:40;;;;;;;0.00;0.00;;;21.10;99.90;;;;;;5045218;28;20029;-69
2023/08/15 07:48:06;;;;;;;0.67;0.47;;;21.20;99.90;;;;;;5022321;28;20036;-68
2023/08/15 07:50:31;;;;;;;0.47;0.47;;;21.20;99.90;;;;;;5036144;28;20566;-69
2023/08/15 07:53:00;;;;;;;0.33;0.23;;;21.30;99.90;;;;;;5033123;28;20037;-68
2023/08/15 07:55:32;;;;;;;0.40;0.40;;;21.40;99.90;;;;;;5032844;28;20356;-68
2023/08/15 07:57:58;;;;;;;9.90;1.55;;;21.50;99.90;;;;;;5025829;28;20499;-69
2023/08/15 08:00:24;;;;;;;6.20;2.65;;;21.50;99.90;;;;;;5039719;28;20026;-69
2023/08/15 08:02:50;;;;;;;0.57;0.47;;;21.50;99.90;;;;;;5029049;28;20360;-69
2023/08/15 08:05:16;;;;;;;0.13;0.13;;;21.40;99.90;;;;;;5030159;28;20026;-69
2023/08/15 08:07:43;;;;;;;1.00;1.00;;;21.50;99.90;;;;;;5024843;28;20247;-69
2023/08/15 08:10:09;;;;;;;0.38;0.38;;;21.50;99.90;;;;;;5024367;28;20033;-68
2023/08/15 08:12:35;;;;;;;0.43;0.43;;;21.60;99.90;;;;;;5035069;28;20041;-69
2023/08/15 08:15:01;;;;;;;0.88;0.82;;;21.60;99.90;;;;;;5035511;28;20034;-70
2023/08/15 08:17:27;;;;;;;0.88;0.88;;;21.60;99.90;;;;;;5034453;28;20030;-68
2023/08/15 08:19:53;;;;;;;2.33;0.53;;;21.60;99.90;;;;;;5028463;28;20034;-69
2023/08/15 08:22:19;;;;;;;0.00;0.00;;;21.60;99.90;;;;;;5034811;28;20029;-70
2023/08/15 08:24:44;;;;;;;1.40;0.73;;;21.60;99.90;;;;;;5051544;28;20034;-68
2023/08/15 08:27:10;;;;;;;2.10;1.13;;;21.60;99.90;;;;;;5044156;28;20031;-69
2023/08/15 08:29:36;;;;;;;1.88;1.05;;;21.50;99.90;;;;;;5050181;28;20057;-68
2023/08/15 08:32:02;;;;;;;0.20;0.20;;;21.50;99.90;;;;;;5050434;28;20128;-69
2023/08/15 08:34:28;;;;;;;0.20;0.20;;;21.40;99.90;;;;;;5041028;28;20075;-68
2023/08/15 08:36:53;;;;;;;0.63;0.43;;;21.40;99.90;;;;;;5050810;28;20032;-68
2023/08/15 08:39:19;;;;;;;0.43;0.43;;;21.40;99.90;;;;;;5042765;28;20487;-68
2023/08/15 08:41:45;;;;;;;0.10;0.10;;;21.50;99.90;;;;;;5050802;28;20049;-68
2023/08/15 08:44:12;;;;;;;5.33;1.30;;;21.60;99.90;;;;;;5029636;28;20104;-68
2023/08/15 08:46:39;;;;;;;0.57;0.40;;;21.60;99.90;;;;;;5024877;28;20042;-72
2023/08/15 08:49:08;;;;;;;0.55;0.55;;;21.60;99.90;;;;;;5048942;28;20044;-68
2023/08/15 08:51:34;;;;;;;1.88;1.20;;;21.70;99.90;;;;;;5060337;28;20412;-69
2023/08/15 08:54:00;;;;;;;0.45;0.45;;;21.60;99.90;;;;;;5041733;28;20075;-68
2023/08/15 08:56:27;;;;;;;0.67;0.67;;;21.60;99.90;;;;;;5049709;28;20427;-68
2023/08/15 08:59:01;;;;;;;3.25;0.95;;;21.60;99.90;;;;;;5033950;28;20104;-69
2023/08/15 09:01:31;;;;;;;2.58;0.60;;;21.60;99.90;;;;;;5043257;28;20044;-68
2023/08/15 09:03:57;;;;;;;7.60;1.33;;;21.60;99.90;;;;;;5030644;28;20022;-68
2023/08/15 09:06:25;;;;;;;0.28;0.28;;;21.50;99.90;;;;;;5023604;28;20025;-68
2023/08/15 09:08:51;;;;;;;0.55;0.55;;;21.50;99.90;;;;;;5031573;28;20328;-68
2023/08/15 09:11:17;;;;;;;0.30;0.30;;;21.50;99.90;;;;;;5050057;28;20037;-68
2023/08/15 09:13:50;;;;;;;0.35;0.35;;;21.40;99.90;;;;;;5034836;28;20103;-69
2023/08/15 09:16:18;;;;;;;1.05;0.55;;;21.40;99.90;;;;;;5028597;28;20040;-69
2023/08/15 09:18:47;;;;;;;1.75;0.73;;;21.40;99.90;;;;;;5029409;28;20025;-69
2023/08/15 09:21:15;;;;;;;0.65;0.65;;;21.40;99.90;;;;;;5030631;28;20152;-69
2023/08/15 09:23:41;;;;;;;0.10;0.10;;;21.40;99.90;;;;;;5028238;28;20101;-69
2023/08/15 09:26:14;;;;;;;0.30;0.30;;;21.50;99.90;;;;;;5023576;28;20133;-68
2023/08/15 09:28:41;;;;;;;0.25;0.25;;;21.50;99.90;;;;;;5027853;28;20067;-68
2023/08/15 09:31:09;;;;;;;0.20;0.20;;;21.60;99.90;;;;;;5023723;28;20014;-69
2023/08/15 09:33:39;;;;;;;0.35;0.35;;;21.60;99.90;;;;;;5030576;28;20448;-68
2023/08/15 09:36:07;;;;;;;0.63;0.63;;;21.60;99.90;;;;;;5024950;28;20164;-68
2023/08/15 09:38:35;;;;;;;0.38;0.38;;;21.60;99.90;;;;;;5029757;28;20034;-68
2023/08/15 09:41:00;;;;;;;0.05;0.05;;;21.50;99.90;;;;;;5025156;28;20066;-69
2023/08/15 09:43:26;;;;;;;0.37;0.30;;;21.30;99.90;;;;;;5034697;28;20373;-68
2023/08/15 09:45:53;;;;;;;0.20;0.20;;;21.20;99.90;;;;;;5024181;28;20096;-68
2023/08/15 09:48:19;;;;;;;0.00;0.00;;;21.10;99.90;;;;;;5028823;28;20719;-68
2023/08/15 09:50:48;;;;;;;0.50;0.50;;;20.90;99.90;;;;;;5024576;28;20070;-69
2023/08/15 09:53:14;;;;;;;0.05;0.05;;;20.80;99.90;;;;;;5030484;28;20112;-68
2023/08/15 09:55:41;;;;;;;3.42;0.90;;;20.70;99.90;;;;;;5029679;28;20033;-68
2023/08/15 09:58:07;;;;;;;;;;;20.70;99.90;;;;;;5042112;28;20534;-68
2023/08/15 10:00:36;;;;;;;4.18;1.38;;;20.80;99.90;;;;;;5033536;28;20326;-68
2023/08/15 10:03:29;;;;;;;4.43;1.08;;;20.90;99.90;;;;;;5030649;28;20009;-69
2023/08/15 10:05:56;;;;;;;0.40;0.38;;;21.00;99.90;;;;;;5024441;28;20038;-68
2023/08/15 10:08:23;;;;;;;0.10;0.10;;;21.20;99.90;;;;;;5033062;28;20100;-67
2023/08/15 10:10:53;;;;;;;;;;;21.30;99.90;;;;;;5027746;28;20025;-69
2023/08/15 10:13:33;;;;;;;0.40;0.30;;;21.50;99.90;;;;;;5028456;28;19909;-69
2023/08/15 10:15:59;;;;;;;0.60;0.50;;;21.70;99.90;;;;;;5028741;28;20443;-69
2023/08/15 10:18:25;;;;;;;2.50;1.45;;;21.90;99.90;;;;;;5023229;28;20483;-68
2023/08/15 10:20:53;;;;;;;13.45;0.50;;;22.00;99.90;;;;;;5024353;28;20057;-69
2023/08/15 10:23:29;;;;;;;0.40;0.40;;;22.10;99.90;;;;;;5028382;28;20029;-69
2023/08/15 10:25:56;;;;;;;0.50;0.43;;;22.30;99.90;;;;;;5045600;28;20320;-68
2023/08/15 10:28:22;;;;;;;0.93;0.85;;;22.40;99.90;;;;;;5050411;28;20032;-70
2023/08/15 10:30:48;;;;;;;0.55;0.55;;;22.20;99.90;;;;;;5036886;28;20030;-68
2023/08/15 10:33:32;;;;;;;0.32;0.32;;;22.20;99.90;;;;;;5029709;28;20459;-68
2023/08/15 10:35:58;;;;;;;0.22;0.22;;;22.00;99.90;;;;;;5030341;28;20041;-68
2023/08/15 10:38:39;;;;;;;1.17;1.07;;;21.90;99.90;;;;;;5032085;28;20030;-68
2023/08/15 10:41:07;;;;;;;0.75;0.75;;;21.80;99.90;;;;;;5036396;28;20052;-77
2023/08/15 10:43:36;;;;;;;0.10;0.10;;;21.70;99.90;;;;;;5029476;28;20033;-68
2023/08/15 10:46:06;;;;;;;0.50;0.50;;;21.80;99.90;;;;;;5037810;28;20022;-68
2023/08/15 10:48:44;;;;;;;0.45;0.38;;;21.70;99.90;;;;;;5026535;28;20025;-68
2023/08/15 10:51:24;;;;;;;0.00;0.00;;;21.70;99.90;;;;;;5031637;28;20033;-67
2023/08/15 10:54:11;;;;;;;0.00;0.00;;;21.70;99.90;;;;;;5041929;28;20035;-68
2023/08/15 10:56:38;;;;;;;0.00;0.00;;;21.50;99.90;;;;;;5021038;28;20026;-67
2023/08/15 10:59:15;;;;;;;0.00;0.00;;;21.40;99.90;;;;;;5026612;28;20021;-68
2023/08/15 11:01:45;;;;;;;0.00;0.00;;;21.30;99.90;;;;;;5027595;28;20029;-68
2023/08/15 11:04:17;;;;;;;0.10;0.10;;;21.30;99.90;;;;;;5032566;28;20424;-70
2023/08/15 11:06:46;;;;;;;0.17;0.17;;;21.20;99.90;;;;;;5035171;28;20109;-70
2023/08/15 11:09:12;;;;;;;0.00;0.00;;;21.10;99.90;;;;;;5035903;28;20037;-68
2023/08/15 11:11:39;;;;;;;0.40;0.40;;;21.00;99.90;;;;;;5028666;28;20069;-83
2023/08/15 11:14:13;;;;;;;0.22;0.22;;;21.00;99.90;;;;;;5028934;28;20102;-68
2023/08/15 11:16:38;;;;;;;0.00;0.00;;;21.10;99.90;;;;;;5034816;28;20033;-69
2023/08/15 11:19:04;;;;;;;0.00;0.00;;;21.10;99.90;;;;;;5027407;28;20029;-69
2023/08/15 11:21:30;;;;;;;0.23;0.20;;;21.10;99.90;;;;;;5033569;28;20057;-69
2023/08/15 11:24:00;;;;;;;0.10;0.10;;;21.10;99.90;;;;;;5032844;28;20052;-69
2023/08/15 11:26:26;;;;;;;0.22;0.22;;;21.20;99.90;;;;;;5035860;28;20087;-69
2023/08/15 11:28:52;;;;;;;0.10;0.10;;;21.20;99.90;;;;;;5033389;28;20191;-69
2023/08/15 11:31:18;;;;;;;0.45;0.45;;;21.30;99.90;;;;;;5035062;28;20375;-68
2023/08/15 11:33:49;;;;;;;0.60;0.60;;;21.40;99.90;;;;;;5033984;28;20421;-69
2023/08/15 11:36:14;;;;;;;0.45;0.45;;;21.40;99.90;;;;;;5035251;28;20091;-68
2023/08/15 11:38:40;;;;;;;0.03;0.03;;;21.50;99.90;;;;;;5043911;28;20025;-70
2023/08/15 11:41:06;;;;;;;0.00;0.00;;;21.60;99.90;;;;;;5020387;28;20337;-69
2023/08/15 11:43:33;;;;;;;0.50;0.50;;;21.80;99.90;;;;;;5035137;28;20035;-68
2023/08/15 11:46:03;;;;;;;0.08;0.08;;;21.70;99.90;;;;;;5034730;28;20302;-69
2023/08/15 11:48:33;;;;;;;0.95;0.90;;;21.70;99.90;;;;;;5023862;28;20025;-69
2023/08/15 11:50:59;;;;;;;2.35;0.93;;;21.70;99.90;;;;;;5016030;28;20026;-69
2023/08/15 11:53:25;;;;;;;12.35;1.55;;;21.70;99.90;;;;;;5028449;28;20036;-69
2023/08/15 11:55:51;;;;;;;2.00;0.80;;;21.80;99.90;;;;;;5034048;28;20018;-70
2023/08/15 11:58:28;;;;;;;0.25;0.25;;;21.80;99.90;;;;;;5029827;28;20083;-69
2023/08/15 12:01:05;;;;;;;0.28;0.28;;;21.70;99.90;;;;;;5041113;28;20032;-68
2023/08/15 12:03:32;;;;;;;9.27;1.33;;;21.70;99.90;;;;;;5027614;28;20025;-69
2023/08/15 12:06:04;;;;;;;;;;;21.70;99.90;;;;;;5030065;28;20368;-68
2023/08/15 12:08:30;;;;;;;0.20;0.20;;;21.70;99.90;;;;;;5026994;28;21755;-83
2023/08/15 12:10:58;;;;;;;0.00;0.00;;;21.80;99.90;;;;;;5024632;28;20043;-69
2023/08/15 12:13:35;;;;;;;0.95;0.47;;;22.00;99.90;;;;;;5027319;28;20030;-68
2023/08/15 12:16:02;;;;;;;2.95;0.98;;;22.20;99.90;;;;;;5022438;28;20117;-68
2023/08/15 12:18:28;;;;;;;0.20;0.20;;;22.40;99.90;;;;;;5028011;28;20075;-68
2023/08/15 12:20:55;;;;;;;0.15;0.15;;;22.60;99.90;;;;;;5024039;28;20073;-69
2023/08/15 12:23:21;;;;;;;0.25;0.25;;;22.60;99.90;;;;;;5027950;28;20026;-69
2023/08/15 12:25:47;;;;;;;0.10;0.10;;;22.60;99.90;;;;;;5027178;28;20359;-69
2023/08/15 12:28:13;;;;;;;0.00;0.00;;;22.80;99.90;;;;;;5029359;28;20037;-69
2023/08/15 12:30:39;;;;;;;0.25;0.25;;;23.00;99.90;;;;;;5035578;28;20336;-71
2023/08/15 12:33:05;;;;;;;1.88;0.95;;;23.30;99.90;;;;;;5038110;28;20044;-69
2023/08/15 12:35:32;;;;;;;0.25;0.25;;;23.60;99.90;;;;;;5043831;28;20029;-69
2023/08/15 12:37:58;;;;;;;0.73;0.73;;;23.80;99.90;;;;;;5037915;28;20037;-69
2023/08/15 12:40:25;;;;;;;0.22;0.22;;;23.90;99.90;;;;;;5028501;28;20046;-69
2023/08/15 12:42:51;;;;;;;1.45;0.88;;;24.10;99.90;;;;;;5045128;28;20089;-68
2023/08/15 12:45:16;;;;;;;0.50;0.50;;;24.00;99.90;;;;;;5048742;28;20467;-69
2023/08/15 12:47:42;;;;;;;1.50;0.57;;;23.90;99.90;;;;;;5041301;28;20573;-70